Aviation Digital Data Service (ADDS)

Output produced by METARs form (1204 UTC 22 March 2019)
found at http://www.aviationweather.gov/metar/data/
 
Forecast for: VOMD (MADURAI , IN)
Text: TAF VOMD 221100Z 2212/2318 09005KT 6000 SCT020
Forecast period: 1200 to 2100 UTC 22 March 2019
Forecast type: FROM: standard forecast or significant change
Winds: from the E (90 degrees) at 6 MPH (5 knots; 2.6 m/s)
Visibility: 4 miles (6 km)
Ceiling: at least 12,000 feet AGL
Clouds: scattered clouds at 2000 feet AGL
Weather: no significant weather forecast for this period
Text: BECMG 2221/2222 00000KT 4000 HZ
Forecast period: 2100 UTC 22 March 2019 to 0500 UTC 23 March 2019
Forecast type: BECOMING: Conditions expected to become as follows by 2200 UTC 22 March 2019
Winds: calm
Visibility: 2.49 miles (4.01 km)
Ceiling: at least 12,000 feet AGL
Clouds: scattered clouds at 2000 feet AGL
Weather: HZ  (haze)
Text: BECMG 2305/2306 09010KT 6000
Forecast period: 0500 to 1800 UTC 23 March 2019
Forecast type: BECOMING: Conditions expected to become as follows by 0600 UTC 23 March 2019
Winds: from the E (90 degrees) at 12 MPH (10 knots; 5.1 m/s)
Visibility: 4 miles (6 km)
Ceiling: at least 12,000 feet AGL
Clouds: scattered clouds at 2000 feet AGL
Weather: HZ  (haze)